Airfield :
LOGIN :

Register | Disclaimer

   EN    FR    IT 

 










Legend :    VFR   Marginal VFR   IFR   Intensive IFR   Very Intensive IFR
Visi :
Ceiling :
>= 8 km
>= 3000ft
5 to 8 km
1000 to 3000 ft
1500m to 5 km
500 to 1000 ft
800 to 1500m
200 to 500 ft
< 800m
< 200 ft
Symbols :   Thunderstorms  Fog  Heavy snow  Heavy precipitations  Wind > 20 kt
SIGMETs :     Misc.  Thunderstorms  Icing  Turbulence  Mountain Waves  Volcanic Ashes






- Airport Elevation : 72 ft
- IATA code : UDE


EHVK - Volkel Airbase

CURRENT METAR :
  • 231555Z AUTO 26004KT 220V320 9999 OVC099 19/11 Q1015 BLU

EXPIRED METARs :
  • 231525Z AUTO 23009KT 190V290 9999 FEW039 BKN096 OVC100 20/11 Q1014 BLU
  • 231455Z AUTO 23008KT 180V280 9999 SCT040 SCT046 BKN051 19/11 Q1014 BLU
  • 231425Z AUTO 23007KT 180V290 9999 OVC096 20/11 Q1014 BLU
  • 231355Z AUTO 23010KT 190V270 9999 BKN080 OVC085 19/12 Q1014 BLU
  • 231325Z AUTO 23011KT 180V290 9999 FEW037 SCT045 BKN051 20/11 Q1014 BLU
  • 231255Z AUTO 21008KT 160V310 9999 SCT034 SCT082 20/12 Q1014 BLU
  • 231225Z AUTO 23008KT 200V280 9999 SCT034 SCT041 20/13 Q1014 BLU
  • 231155Z AUTO 25008KT 180V310 9999 FEW029 19/11 Q1015 BLU
  • 231125Z AUTO 23008KT 190V260 9999 BKN043 OVC048 18/12 Q1015 BLU

TAF TAF EHVK
Valid from the 23 at 13:00 until the 24 at 01:00 UTC


231229Z 2313/2401 24009KT 9999 SCT030 BKN040
TEMPO 2313/2320 4000 SHRA SCT020CB BKN025
PROB30
TEMPO 2314/2319 VRB12G25KT 2500 TSRAGR SCT018CB BKN025
BECMG 2317/2319 VRB02KT
TEMPO 2321/2401 3500 BR MIFG
PROB30
TEMPO 2400/2401 1500 BCFG



MET'MAP, your aeronautical weather chart ! - Copyright ORBIFLY December 2007 - Disclaimer

ORBIFLY MET'MAP TEAM :

Programming & Development : Alexandra Zaïnal
Original concept : Baudouin d'Aumeries
Technical & hardware support : Manuel Goepfert
Assistance : Marc-Olivier Méhu




SOURCES & CREDITS :

   NOAA